Time;durP1;ratioP1;P1;durP2;ratioP2;P2;SDS_P1;SDS_P2;PMS_P1;PMS_P2;Temp;Humidity;BMP_temperature;BMP_pressure;BME280_temperature;BME280_humidity;BME280_pressure;Samples;Min_cycle;Max_cycle;Signal;HPM_P1;HPM_P2
2021/05/09 00:01:52;;;;;;;63.98;33.28;;;;;;;2.78;68.82;99441.22;4446896;79;22924;-86
2021/05/09 00:08:04;;;;;;;59.53;30.92;;;;;;;2.55;68.53;99448.35;4590398;76;22775;-87
2021/05/09 00:14:15;;;;;;;54.13;29.42;;;;;;;2.21;69.16;99441.42;4536190;77;22756;-86
2021/05/09 00:20:27;;;;;;;50.78;31.37;;;;;;;2.07;69.71;99438.01;4475412;77;28065;-86
2021/05/09 00:26:37;;;;;;;45.25;26.50;;;;;;;2.13;69.75;99438.89;4542746;76;28144;-87
2021/05/09 00:32:48;;;;;;;43.48;28.83;;;;;;;2.25;70.01;99440.50;4340020;79;28578;-86
2021/05/09 00:38:59;;;;;;;48.17;28.15;;;;;;;2.46;70.62;99439.41;4386838;79;23207;-86
2021/05/09 00:45:10;;;;;;;48.78;26.68;;;;;;;2.26;70.24;99439.92;4587277;76;22820;-86
2021/05/09 00:51:21;;;;;;;46.53;28.67;;;;;;;2.09;70.58;99431.18;4404542;79;28155;-85
2021/05/09 00:57:39;;;;;;;49.03;27.20;;;;;;;2.18;70.71;99437.97;4577588;76;22741;-86
2021/05/09 01:03:57;;;;;;;50.52;27.65;;;;;;;2.06;71.15;99432.34;4567125;76;22857;-86
2021/05/09 01:10:12;;;;;;;50.23;27.82;;;;;;;1.95;71.25;99432.34;4440204;78;22275;-86
2021/05/09 01:16:29;;;;;;;56.63;28.92;;;;;;;1.84;71.05;99421.02;4598242;76;22893;-86
2021/05/09 01:22:47;;;;;;;48.28;27.37;;;;;;;1.56;71.24;99412.78;4587684;76;22950;-86
2021/05/09 01:28:58;;;;;;;56.92;29.87;;;;;;;1.40;71.38;99422.33;4580358;76;22701;-85
2021/05/09 01:35:11;;;;;;;59.38;30.10;;;;;;;1.50;72.11;99422.11;4384120;79;22896;-85
2021/05/09 01:41:22;;;;;;;47.13;26.95;;;;;;;1.32;71.96;99417.66;4506952;78;22279;-86
2021/05/09 01:47:36;;;;;;;57.48;29.92;;;;;;;1.34;72.80;99423.55;4590975;76;22925;-85
2021/05/09 01:53:47;;;;;;;49.60;26.85;;;;;;;1.45;72.48;99409.53;4526520;77;24090;-86
2021/05/09 01:59:58;;;;;;;56.35;27.73;;;;;;;1.48;72.94;99424.30;4436717;78;22239;-85
2021/05/09 02:06:10;;;;;;;63.73;33.28;;;;;;;1.41;72.49;99423.91;4531451;77;23039;-86
2021/05/09 02:12:23;;;;;;;48.87;27.62;;;;;;;1.24;72.31;99421.87;4440441;79;22936;-86
2021/05/09 02:18:35;;;;;;;61.25;29.77;;;;;;;1.07;72.68;99416.86;4405149;79;23019;-87
2021/05/09 02:24:46;;;;;;;51.18;29.77;;;;;;;0.98;73.03;99411.40;4541332;76;28015;-87
2021/05/09 02:30:57;;;;;;;50.93;31.33;;;;;;;1.22;73.23;99417.32;4412930;79;39044;-86
2021/05/09 02:37:09;;;;;;;56.02;31.30;;;;;;;1.60;73.25;99409.16;4545751;76;28138;-87
2021/05/09 02:43:20;;;;;;;50.80;32.08;;;;;;;1.90;73.69;99414.37;4403716;79;28820;-86
2021/05/09 02:49:32;;;;;;;58.45;30.23;;;;;;;2.20;73.92;99402.00;4445032;79;23292;-86
2021/05/09 02:55:44;;;;;;;50.47;31.90;;;;;;;2.40;74.09;99402.80;4397696;78;28249;-87
2021/05/09 03:01:54;;;;;;;52.67;29.65;;;;;;;2.57;73.57;99399.63;4379577;79;22786;-87
2021/05/09 03:08:11;;;;;;;50.30;28.38;;;;;;;2.38;73.80;99405.82;4603383;75;22935;-86
2021/05/09 03:14:24;;;;;;;51.95;27.15;;;;;;;2.22;74.41;99405.20;4445994;79;22641;-86
2021/05/09 03:20:36;;;;;;;57.23;30.57;;;;;;;2.29;74.49;99412.28;4512455;77;22908;-87
2021/05/09 03:26:47;;;;;;;56.98;29.00;;;;;;;2.25;74.91;99410.78;4443034;79;22860;-86
2021/05/09 03:33:05;;;;;;;55.20;29.18;;;;;;;2.34;75.08;99420.27;4581060;76;22594;-86
2021/05/09 03:39:17;;;;;;;51.83;28.32;;;;;;;2.43;75.28;99429.20;4399161;79;22820;-86
2021/05/09 03:45:28;;;;;;;46.10;30.20;;;;;;;2.60;75.31;99434.71;4405663;78;28430;-87
2021/05/09 03:51:39;;;;;;;55.03;30.45;;;;;;;2.77;74.79;99432.06;4587889;75;22694;-86
2021/05/09 03:57:55;;;;;;;54.90;29.32;;;;;;;2.71;75.03;99437.37;4585100;76;22650;-86
2021/05/09 04:04:06;;;;;;;57.70;30.97;;;;;;;2.61;75.07;99429.53;4451345;79;22952;-86
2021/05/09 04:10:17;;;;;;;50.20;29.67;;;;;;;2.60;75.65;99430.08;4589336;75;23395;-86
2021/05/09 04:16:28;;;;;;;44.80;27.30;;;;;;;2.72;76.18;99434.36;4554818;76;28271;-87
2021/05/09 04:22:44;;;;;;;48.87;27.93;;;;;;;3.24;75.83;99424.47;4586704;75;22863;-86
2021/05/09 04:28:55;;;;;;;51.30;29.00;;;;;;;3.45;76.27;99436.25;4588539;76;22730;-86
2021/05/09 04:35:07;;;;;;;48.13;30.48;;;;;;;3.69;76.30;99433.08;4548935;76;28127;-87
2021/05/09 04:41:23;;;;;;;49.30;28.62;;;;;;;4.23;76.01;99428.30;4566715;75;22827;-86
2021/05/09 04:47:59;;;;;;;44.98;26.02;;;;;;;4.50;76.35;99427.91;4484265;79;22938;-88
2021/05/09 04:54:16;;;;;;;45.03;25.23;;;;;;;4.76;76.40;99426.69;4388323;79;23261;-87
2021/05/09 05:00:27;;;;;;;51.98;28.35;;;;;;;4.93;76.10;99433.96;4442917;79;23224;-87
2021/05/09 05:06:38;;;;;;;41.40;26.35;;;;;;;5.04;75.80;99428.95;4297321;79;43087;-86
2021/05/09 05:12:49;;;;;;;37.23;23.87;;;;;;;5.43;75.62;99427.18;4328133;74;67864;-87
2021/05/09 05:19:01;;;;;;;40.20;23.42;;;;;;;5.78;75.58;99426.57;4451016;78;22290;-84
2021/05/09 05:25:13;;;;;;;31.95;20.95;;;;;;;6.22;75.17;99424.50;4453771;77;28282;-84
2021/05/09 05:31:23;;;;;;;29.37;19.93;;;;;;;6.95;74.62;99420.53;4469338;78;39299;-85
2021/05/09 05:37:34;;;;;;;32.42;17.85;;;;;;;7.66;74.18;99407.91;4473592;77;23380;-84
2021/05/09 05:43:44;;;;;;;27.58;16.55;;;;;;;8.02;73.22;99399.60;4576583;76;22940;-84
2021/05/09 05:51:05;;;;;;;32.65;17.02;;;;;;;8.50;73.04;99397.22;4366475;76;77286;-84
2021/05/09 07:56:40;;;;;;;1.27;0.93;;;;;;;19.55;40.26;99329.19;4428764;76;43100;-90
2021/05/09 08:04:20;;;;;;;1.87;1.30;;;;;;;19.95;39.84;99332.14;4375331;75;103149;-84
2021/05/09 08:10:42;;;;;;;2.98;1.20;;;;;;;20.26;40.52;99327.91;4139712;77;147850;-84
2021/05/09 09:10:54;;;;;;;1.40;0.95;;;;;;;18.87;32.93;99296.15;4447256;76;122412;-87
2021/05/09 15:08:29;;;;;;;0.53;0.40;;;;;;;25.20;26.03;98991.42;4295193;75;2332306;-84
